createdAt,value
2023-02-04T00:00:17.606Z,7.72
2023-02-04T00:02:44.495Z,7.80
2023-02-04T00:05:12.807Z,8.57
2023-02-04T00:07:41.486Z,6.68
2023-02-04T00:10:09.148Z,4.85
2023-02-04T00:12:36.706Z,11.50
2023-02-04T00:15:04.256Z,11.20
2023-02-04T00:17:31.083Z,10.48
2023-02-04T00:20:01.430Z,10.73
2023-02-04T00:22:31.482Z,10.23
2023-02-04T00:24:58.317Z,8.13
2023-02-04T00:27:25.077Z,6.95
2023-02-04T00:29:52.092Z,8.35
2023-02-04T00:32:19.124Z,8.95
2023-02-04T00:34:47.241Z,11.07
2023-02-04T00:37:15.162Z,8.52
2023-02-04T00:39:42.102Z,13.82
2023-02-04T00:42:09.007Z,9.38
2023-02-04T00:44:36.778Z,6.28
2023-02-04T00:47:04.165Z,11.95
2023-02-04T00:49:33.350Z,9.05
2023-02-04T00:52:00.455Z,7.72
2023-02-04T00:54:28.140Z,7.45
2023-02-04T00:56:54.992Z,10.52
2023-02-04T00:59:22.534Z,9.48
2023-02-04T01:01:51.795Z,11.75
2023-02-04T01:04:19.061Z,7.22
2023-02-04T01:06:45.975Z,17.33
2023-02-04T01:09:12.913Z,8.70
2023-02-04T01:11:41.010Z,16.33
2023-02-04T01:14:08.097Z,9.05
2023-02-04T01:16:35.266Z,7.90
2023-02-04T01:19:03.053Z,8.13
2023-02-04T01:21:30.334Z,13.10
2023-02-04T01:23:57.765Z,5.13
2023-02-04T01:26:25.883Z,11.98
2023-02-04T01:28:54.668Z,8.55
2023-02-04T01:31:22.203Z,11.30
2023-02-04T01:33:49.230Z,6.38
2023-02-04T01:36:22.139Z,12.68
2023-02-04T01:38:50.475Z,8.82
2023-02-04T01:41:19.007Z,10.93
2023-02-04T01:43:49.553Z,11.07
2023-02-04T01:46:17.889Z,3.10
2023-02-04T01:48:46.924Z,11.30
2023-02-04T01:51:17.191Z,8.63
2023-02-04T01:53:44.139Z,6.35
2023-02-04T01:56:27.708Z,4.28
2023-02-04T01:58:57.749Z,8.40
2023-02-04T02:01:49.268Z,10.77
2023-02-04T02:04:20.348Z,6.78
2023-02-04T02:06:51.760Z,9.40
2023-02-04T02:09:18.596Z,8.02
2023-02-04T02:11:47.642Z,3.03
2023-02-04T02:14:15.428Z,7.60
2023-02-04T02:16:42.672Z,5.45
2023-02-04T02:19:18.221Z,9.68
2023-02-04T02:21:56.617Z,5.53
2023-02-04T02:24:30.643Z,8.52
2023-02-04T02:27:04.229Z,7.88
2023-02-04T02:29:31.691Z,5.15
2023-02-04T02:31:59.892Z,8.00
2023-02-04T02:34:28.774Z,6.70
2023-02-04T02:36:58.153Z,11.65
2023-02-04T02:39:25.867Z,8.68
2023-02-04T02:41:53.316Z,7.93
2023-02-04T02:44:21.675Z,11.50
2023-02-04T02:46:49.062Z,8.70
2023-02-04T02:49:18.873Z,12.48
2023-02-04T02:51:48.847Z,6.57
2023-02-04T02:54:35.688Z,7.95
2023-02-04T02:57:13.743Z,6.22
2023-02-04T02:59:41.096Z,7.70
2023-02-04T03:02:10.211Z,7.28
2023-02-04T03:04:42.883Z,11.23
2023-02-04T03:07:14.491Z,13.35
2023-02-04T03:09:41.941Z,6.22
2023-02-04T03:12:09.036Z,8.00
2023-02-04T03:14:38.637Z,5.15
2023-02-04T03:17:09.075Z,7.28
2023-02-04T03:19:37.748Z,3.92
2023-02-04T03:22:06.146Z,4.90
2023-02-04T03:24:33.280Z,6.80
2023-02-04T03:27:00.433Z,5.15
2023-02-04T03:29:29.686Z,3.58
2023-02-04T03:32:00.421Z,5.30
2023-02-04T03:34:28.949Z,8.57
2023-02-04T03:36:56.104Z,9.73
2023-02-04T03:39:23.873Z,5.72
2023-02-04T03:41:50.906Z,9.52
2023-02-04T03:44:18.908Z,5.20
2023-02-04T03:46:46.075Z,2.15
2023-02-04T03:49:13.078Z,0.98
2023-02-04T03:51:40.235Z,1.15
2023-02-04T03:54:07.294Z,5.50
2023-02-04T03:56:38.214Z,2.25
2023-02-04T03:59:06.688Z,0.60
2023-02-04T04:01:34.851Z,0.88
2023-02-04T04:04:01.818Z,0.57
2023-02-04T04:06:28.762Z,0.70
2023-02-04T04:08:55.704Z,0.70
2023-02-04T04:11:22.656Z,0.70
2023-02-04T04:13:50.727Z,0.60
2023-02-04T04:16:18.254Z,0.70
2023-02-04T04:18:45.329Z,0.88
2023-02-04T04:21:12.799Z,0.70
2023-02-04T04:23:41.887Z,0.75
2023-02-04T04:26:08.932Z,1.13
2023-02-04T04:28:38.024Z,0.70
2023-02-04T04:31:05.296Z,0.80
2023-02-04T04:33:32.426Z,1.48
2023-02-04T04:35:59.599Z,0.90
2023-02-04T04:38:27.643Z,0.80
2023-02-04T04:40:55.091Z,2.40
2023-02-04T04:43:22.138Z,1.63
2023-02-04T04:45:50.760Z,0.80
2023-02-04T04:48:17.863Z,0.90
2023-02-04T04:50:45.254Z,1.05
2023-02-04T04:53:12.099Z,0.88
2023-02-04T04:55:39.180Z,1.48
2023-02-04T04:58:07.403Z,1.00
2023-02-04T05:00:35.058Z,1.40
2023-02-04T05:03:02.019Z,1.38
2023-02-04T05:05:28.764Z,1.00
2023-02-04T05:07:55.710Z,0.93
2023-02-04T05:10:22.579Z,1.25
2023-02-04T05:12:49.392Z,1.50
2023-02-04T05:15:16.317Z,1.40
2023-02-04T05:17:43.067Z,2.05
2023-02-04T05:20:10.301Z,1.08
2023-02-04T05:22:37.064Z,1.13
2023-02-04T05:25:04.062Z,1.15
2023-02-04T05:27:33.528Z,1.10
2023-02-04T05:30:00.400Z,1.85
2023-02-04T05:32:27.224Z,1.40
2023-02-04T05:34:54.058Z,1.25
2023-02-04T05:37:21.175Z,1.17
2023-02-04T05:39:48.124Z,1.35
2023-02-04T05:42:14.856Z,1.35
2023-02-04T05:44:41.614Z,4.22
2023-02-04T05:47:08.435Z,17.83
2023-02-04T05:49:35.789Z,2.83
2023-02-04T05:52:02.590Z,2.40
2023-02-04T05:54:29.517Z,2.22
2023-02-04T05:56:56.494Z,2.75
2023-02-04T05:59:23.364Z,2.35
2023-02-04T06:01:50.181Z,10.20
2023-02-04T06:04:17.293Z,2.15
2023-02-04T06:06:44.338Z,1.50
2023-02-04T06:09:11.161Z,1.50
2023-02-04T06:11:38.110Z,1.73
2023-02-04T06:14:05.038Z,90.28
2023-02-04T06:16:31.837Z,2.85
2023-02-04T06:18:58.636Z,4.22
2023-02-04T06:21:25.497Z,2.10
2023-02-04T06:23:52.264Z,2.30
2023-02-04T06:26:19.040Z,3.28
2023-02-04T06:28:45.982Z,4.70
2023-02-04T06:31:12.873Z,4.25
2023-02-04T06:33:39.794Z,2.03
2023-02-04T06:36:06.958Z,1.80
2023-02-04T06:38:33.866Z,3.97
2023-02-04T06:41:00.630Z,2.83
2023-02-04T06:43:28.122Z,1.80
2023-02-04T06:45:55.064Z,2.05
2023-02-04T06:48:21.953Z,1.95
2023-02-04T06:50:48.834Z,1.58
2023-02-04T06:53:15.770Z,2.42
2023-02-04T06:55:42.707Z,2.60
2023-02-04T06:58:09.878Z,2.70
2023-02-04T07:00:36.699Z,2.60
2023-02-04T07:03:03.628Z,2.03
2023-02-04T07:05:30.566Z,1.85
2023-02-04T07:07:57.332Z,3.10
2023-02-04T07:10:24.172Z,1.60
2023-02-04T07:12:50.995Z,1.60
2023-02-04T07:15:17.888Z,1.48
2023-02-04T07:17:45.090Z,1.92
2023-02-04T07:20:12.582Z,2.30
2023-02-04T07:22:39.406Z,2.33
2023-02-04T07:25:06.662Z,3.30
2023-02-04T07:27:33.427Z,2.45
2023-02-04T07:30:00.227Z,1.70
2023-02-04T07:32:27.989Z,1.73
2023-02-04T07:34:54.795Z,4.97
2023-02-04T07:37:23.011Z,8.38
2023-02-04T07:39:49.759Z,10.05
2023-02-04T07:42:16.536Z,10.82
2023-02-04T07:44:52.016Z,32.22
2023-02-04T07:47:18.801Z,41.42
2023-02-04T07:49:45.541Z,6.57
2023-02-04T07:52:12.488Z,7.75
2023-02-04T07:54:39.338Z,7.70
2023-02-04T07:57:06.121Z,5.18
2023-02-04T07:59:32.915Z,2.03
2023-02-04T08:02:00.012Z,1.90
2023-02-04T08:04:26.882Z,2.03
2023-02-04T08:06:53.641Z,3.30
2023-02-04T08:09:20.471Z,1.60
2023-02-04T08:11:47.226Z,3.13
2023-02-04T08:14:14.059Z,1.58
2023-02-04T08:16:40.854Z,1.58
2023-02-04T08:19:07.618Z,3.78
2023-02-04T08:21:34.459Z,2.88
2023-02-04T08:24:01.263Z,7.72
2023-02-04T08:26:28.012Z,21.05
2023-02-04T08:28:54.859Z,7.15
2023-02-04T08:31:21.703Z,3.47
2023-02-04T08:33:48.539Z,3.30
2023-02-04T08:36:15.338Z,3.30
2023-02-04T08:38:42.183Z,3.95
2023-02-04T08:41:09.066Z,6.18
2023-02-04T08:43:37.051Z,3.33
2023-02-04T08:46:04.106Z,7.60
2023-02-04T08:48:30.934Z,3.67
2023-02-04T08:50:57.734Z,4.13
2023-02-04T08:53:24.526Z,6.13
2023-02-04T08:55:51.368Z,4.20
2023-02-04T08:58:18.137Z,1.45
2023-02-04T09:00:45.026Z,2.58
2023-02-04T09:03:11.973Z,2.65
2023-02-04T09:05:38.778Z,1.67
2023-02-04T09:08:05.749Z,1.23
2023-02-04T09:10:32.806Z,2.30
2023-02-04T09:12:59.919Z,4.82
2023-02-04T09:15:26.865Z,3.60
2023-02-04T09:17:54.486Z,5.13
2023-02-04T09:20:21.866Z,2.40
2023-02-04T09:22:50.364Z,10.98
2023-02-04T09:25:17.127Z,10.55
2023-02-04T09:27:43.930Z,8.40
2023-02-04T09:30:11.275Z,7.25
2023-02-04T09:32:38.020Z,3.47
2023-02-04T09:35:05.318Z,3.53
2023-02-04T09:37:32.116Z,4.07
2023-02-04T09:39:58.906Z,1.70
2023-02-04T09:42:26.771Z,3.35
2023-02-04T09:44:53.771Z,4.43
2023-02-04T09:47:24.261Z,1.67
2023-02-04T09:49:51.860Z,3.10
2023-02-04T09:52:19.813Z,4.90
2023-02-04T09:54:46.775Z,6.63
2023-02-04T09:57:20.859Z,4.30
2023-02-04T09:59:47.814Z,5.25
2023-02-04T10:02:26.311Z,2.60
2023-02-04T10:04:57.709Z,2.67
2023-02-04T10:07:26.667Z,4.93
2023-02-04T10:09:54.960Z,4.18
2023-02-04T10:12:22.094Z,1.70
2023-02-04T10:14:49.773Z,2.97
2023-02-04T10:17:21.795Z,2.60
2023-02-04T10:19:48.731Z,1.77
2023-02-04T10:22:21.728Z,1.73
2023-02-04T10:24:48.717Z,2.10
2023-02-04T10:27:16.599Z,4.45
2023-02-04T10:29:54.817Z,4.15
2023-02-04T10:32:30.729Z,2.15
2023-02-04T10:35:00.144Z,3.95
2023-02-04T10:37:27.080Z,1.83
2023-02-04T10:39:54.072Z,2.53
2023-02-04T10:42:24.098Z,2.72
2023-02-04T10:44:51.755Z,3.30
2023-02-04T10:47:22.280Z,2.80
2023-02-04T10:49:54.553Z,3.97
2023-02-04T10:52:24.341Z,2.40
2023-02-04T10:54:51.211Z,6.47
2023-02-04T10:57:28.745Z,8.48
2023-02-04T10:59:59.304Z,7.82
2023-02-04T11:02:31.735Z,2.25
2023-02-04T11:04:58.776Z,3.00
2023-02-04T11:07:25.597Z,1.80
2023-02-04T11:09:52.533Z,2.60
2023-02-04T11:12:21.352Z,7.63
2023-02-04T11:14:56.310Z,12.13
2023-02-04T11:17:31.525Z,1.85
2023-02-04T11:19:58.447Z,6.47
2023-02-04T11:22:41.769Z,6.85
2023-02-04T11:25:39.717Z,4.18
2023-02-04T11:28:24.457Z,1.40
2023-02-04T11:31:02.618Z,4.22
2023-02-04T11:33:41.593Z,4.15
2023-02-04T11:36:12.144Z,1.25
2023-02-04T11:38:39.741Z,3.17
2023-02-04T11:41:06.648Z,1.05
2023-02-04T11:43:35.133Z,2.42
2023-02-04T11:46:17.454Z,1.20
2023-02-04T11:48:44.742Z,1.02
2023-02-04T11:51:17.293Z,1.00
2023-02-04T11:53:44.314Z,1.45
2023-02-04T11:56:22.060Z,2.80
2023-02-04T11:58:50.208Z,3.05
2023-02-04T12:01:22.052Z,7.88
2023-02-04T12:03:51.441Z,6.88
2023-02-04T12:06:22.647Z,1.58
2023-02-04T12:08:49.685Z,1.25
2023-02-04T12:11:30.471Z,2.35
2023-02-04T12:14:06.080Z,2.90
2023-02-04T12:16:48.983Z,1.05
2023-02-04T12:19:15.789Z,22.00
2023-02-04T12:21:42.566Z,5.78
2023-02-04T12:24:09.682Z,5.07
2023-02-04T12:26:36.461Z,2.38
2023-02-04T12:29:05.697Z,1.50
2023-02-04T12:31:33.349Z,1.88
2023-02-04T12:34:00.491Z,1.00
2023-02-04T12:36:27.966Z,1.67
2023-02-04T12:38:54.800Z,1.85
2023-02-04T12:41:21.913Z,1.40
2023-02-04T12:43:50.660Z,1.13
2023-02-04T12:46:18.316Z,1.17
2023-02-04T12:48:45.145Z,1.40
2023-02-04T12:51:12.038Z,1.33
2023-02-04T12:53:38.802Z,1.40
2023-02-04T12:56:06.178Z,1.63
2023-02-04T12:58:32.910Z,8.80
2023-02-04T13:00:59.718Z,15.20
2023-02-04T13:03:26.709Z,6.72
2023-02-04T13:05:53.486Z,3.85
2023-02-04T13:08:20.297Z,1.90
2023-02-04T13:10:52.002Z,3.92
2023-02-04T13:13:20.060Z,1.55
2023-02-04T13:15:46.978Z,1.90
2023-02-04T13:18:14.265Z,3.90
2023-02-04T13:20:42.549Z,16.15
2023-02-04T13:23:09.370Z,12.48
2023-02-04T13:25:36.109Z,28.48
2023-02-04T13:28:02.904Z,8.73
2023-02-04T13:30:29.739Z,2.60
2023-02-04T13:32:56.598Z,1.05
2023-02-04T13:35:23.434Z,1.70
2023-02-04T13:37:50.208Z,3.50
2023-02-04T13:40:17.098Z,1.58
2023-02-04T13:42:43.888Z,3.90
2023-02-04T13:45:12.725Z,1.95
2023-02-04T13:47:39.819Z,3.88
2023-02-04T13:50:07.452Z,1.10
2023-02-04T13:52:34.680Z,8.68
2023-02-04T13:55:01.550Z,6.93
2023-02-04T13:57:28.350Z,1.90
2023-02-04T13:59:55.143Z,2.47
2023-02-04T14:02:24.072Z,1.23
2023-02-04T14:04:51.240Z,1.83
2023-02-04T14:07:18.057Z,1.42
2023-02-04T14:09:44.868Z,1.70
2023-02-04T14:12:11.637Z,3.10
2023-02-04T14:14:38.407Z,1.50
2023-02-04T14:17:05.314Z,4.57
2023-02-04T14:19:32.619Z,1.67
2023-02-04T14:21:59.586Z,1.10
2023-02-04T14:24:26.535Z,3.30
2023-02-04T14:26:53.393Z,37.08
2023-02-04T14:29:20.257Z,10.98
2023-02-04T14:31:47.059Z,2.45
2023-02-04T14:34:13.905Z,2.00
2023-02-04T14:36:40.708Z,2.15
2023-02-04T14:39:07.512Z,1.73
2023-02-04T14:41:34.302Z,2.22
2023-02-04T14:44:01.018Z,1.20
2023-02-04T14:46:27.828Z,2.85
2023-02-04T14:48:54.793Z,1.20
2023-02-04T14:51:21.710Z,1.30
2023-02-04T14:53:48.961Z,1.48
2023-02-04T14:56:16.920Z,2.33
2023-02-04T14:58:43.800Z,2.05
2023-02-04T15:01:10.680Z,1.20
2023-02-04T15:03:37.805Z,1.45
2023-02-04T15:06:04.809Z,1.10
2023-02-04T15:08:32.995Z,1.75
2023-02-04T15:10:59.993Z,4.25
2023-02-04T15:13:28.092Z,2.67
2023-02-04T15:15:55.049Z,2.42
2023-02-04T15:18:22.019Z,1.70
2023-02-04T15:20:48.826Z,1.40
2023-02-04T15:23:15.591Z,1.13
2023-02-04T15:25:42.436Z,1.58
2023-02-04T15:28:11.910Z,1.30
2023-02-04T15:30:39.390Z,1.75
2023-02-04T15:33:06.152Z,1.17
2023-02-04T15:35:33.117Z,1.75
2023-02-04T15:38:00.280Z,1.30
2023-02-04T15:40:30.232Z,1.77
2023-02-04T15:42:57.683Z,1.50
2023-02-04T15:45:24.742Z,3.08
2023-02-04T15:47:51.669Z,1.70
2023-02-04T15:50:18.747Z,2.40
2023-02-04T15:52:45.622Z,2.35
2023-02-04T15:55:12.609Z,1.77
2023-02-04T15:57:39.678Z,2.10
2023-02-04T16:00:07.347Z,2.90
2023-02-04T16:02:34.210Z,7.75
2023-02-04T16:05:01.012Z,15.75
2023-02-04T16:07:27.884Z,23.45
2023-02-04T16:09:54.856Z,21.40
2023-02-04T16:12:21.640Z,24.05
2023-02-04T16:14:48.447Z,25.65
2023-02-04T16:17:15.373Z,18.40
2023-02-04T16:19:42.493Z,15.68
2023-02-04T16:22:09.413Z,8.02
2023-02-04T16:24:36.882Z,17.17
2023-02-04T16:27:03.838Z,20.88
2023-02-04T16:29:31.097Z,31.17
2023-02-04T16:31:58.100Z,13.75
2023-02-04T16:34:25.199Z,12.35
2023-02-04T16:36:52.214Z,18.48
2023-02-04T16:39:18.998Z,17.55
2023-02-04T16:41:45.820Z,14.20
2023-02-04T16:44:12.737Z,14.23
2023-02-04T16:46:39.585Z,14.45
2023-02-04T16:49:06.391Z,8.13
2023-02-04T16:51:33.225Z,12.52
2023-02-04T16:54:00.050Z,8.25
2023-02-04T16:56:35.055Z,14.23
2023-02-04T16:59:03.248Z,93.78
2023-02-04T17:01:30.902Z,411.73
2023-02-04T17:04:00.738Z,299.05
2023-02-04T17:06:29.496Z,196.75
2023-02-04T17:08:56.745Z,239.40
2023-02-04T17:11:29.817Z,140.30
2023-02-04T17:14:01.463Z,78.65
2023-02-04T17:16:29.820Z,19.40
2023-02-04T17:18:57.329Z,10.40
2023-02-04T17:21:26.012Z,10.43
2023-02-04T17:23:53.266Z,18.38
2023-02-04T17:26:20.122Z,21.77
2023-02-04T17:28:47.291Z,18.88
2023-02-04T17:31:14.323Z,18.27
2023-02-04T17:33:41.253Z,15.50
2023-02-04T17:36:08.857Z,9.15
2023-02-04T17:38:35.749Z,11.70
2023-02-04T17:41:02.806Z,12.63
2023-02-04T17:43:29.583Z,7.65
2023-02-04T17:45:56.350Z,10.88
2023-02-04T17:48:23.319Z,27.10
2023-02-04T17:50:50.187Z,17.45
2023-02-04T17:53:16.941Z,10.57
2023-02-04T17:55:43.796Z,8.32
2023-02-04T17:58:23.016Z,11.88
2023-02-04T18:00:50.932Z,13.90
2023-02-04T18:03:22.905Z,11.80
2023-02-04T18:05:52.327Z,20.88
2023-02-04T18:08:21.691Z,81.97
2023-02-04T18:10:50.542Z,26.85
2023-02-04T18:13:21.838Z,15.73
2023-02-04T18:15:54.884Z,12.60
2023-02-04T18:18:23.754Z,10.70
2023-02-04T18:21:14.722Z,12.60
2023-02-04T18:23:41.821Z,10.73
2023-02-04T18:26:16.633Z,9.98
2023-02-04T18:28:48.076Z,24.85
2023-02-04T18:31:35.618Z,22.13
2023-02-04T18:34:16.991Z,24.60
2023-02-04T18:36:43.863Z,28.10
2023-02-04T18:39:17.858Z,32.38
2023-02-04T18:44:32.791Z,53.25
2023-02-04T18:47:00.976Z,47.90
2023-02-04T18:49:34.149Z,37.08
2023-02-04T18:52:09.929Z,22.33
2023-02-04T18:54:37.786Z,28.20
2023-02-04T18:57:13.568Z,29.90
2023-02-04T18:59:41.342Z,29.25
2023-02-04T19:02:27.025Z,23.58
2023-02-04T19:05:12.008Z,23.48
2023-02-04T19:07:39.776Z,26.58
2023-02-04T19:10:26.903Z,27.52
2023-02-04T19:12:54.328Z,65.18
2023-02-04T19:15:36.520Z,25.38
2023-02-04T19:18:30.115Z,18.52
2023-02-04T19:21:08.164Z,17.40
2023-02-04T19:23:37.914Z,45.60
2023-02-04T19:26:25.115Z,29.63
2023-02-04T19:28:52.639Z,16.38
2023-02-04T19:31:19.633Z,14.32
2023-02-04T19:33:48.926Z,11.88
2023-02-04T19:36:39.972Z,8.75
2023-02-04T19:39:30.756Z,9.30
2023-02-04T19:41:58.286Z,12.23
2023-02-04T19:44:34.445Z,11.55
2023-02-04T19:47:22.609Z,11.52
2023-02-04T19:49:49.443Z,13.75
2023-02-04T19:52:36.959Z,24.95
2023-02-04T19:55:12.924Z,52.72
2023-02-04T19:57:39.694Z,50.05
2023-02-04T20:00:35.963Z,28.73
2023-02-04T20:03:14.541Z,35.30
2023-02-04T20:05:42.238Z,36.95
2023-02-04T20:08:35.102Z,22.80
2023-02-04T20:11:32.697Z,22.60
2023-02-04T20:14:14.583Z,21.67
2023-02-04T20:16:44.396Z,16.42
2023-02-04T20:19:30.180Z,21.83
2023-02-04T20:22:02.726Z,18.40
2023-02-04T20:24:39.652Z,25.30
2023-02-04T20:27:23.595Z,21.38
2023-02-04T20:29:59.103Z,27.48
2023-02-04T20:32:27.709Z,23.65
2023-02-04T20:35:21.498Z,27.55
2023-02-04T20:37:57.794Z,27.38
2023-02-04T20:40:35.864Z,31.08
2023-02-04T20:43:12.328Z,22.08
2023-02-04T20:45:56.337Z,26.10
2023-02-04T20:50:59.103Z,52.17
2023-02-04T20:53:40.084Z,51.65
2023-02-04T20:56:24.393Z,32.70
2023-02-04T20:59:03.031Z,21.63
2023-02-04T21:01:34.205Z,25.63
2023-02-04T21:04:23.180Z,18.85
2023-02-04T21:06:51.724Z,17.55
2023-02-04T21:09:23.705Z,22.25
2023-02-04T21:11:51.813Z,20.10
2023-02-04T21:14:18.661Z,15.02
2023-02-04T21:16:45.674Z,14.45
2023-02-04T21:19:12.807Z,13.27
2023-02-04T21:21:39.621Z,11.95
2023-02-04T21:24:07.278Z,13.43
2023-02-04T21:26:34.346Z,9.50
2023-02-04T21:29:01.311Z,10.70
2023-02-04T21:31:28.142Z,9.10
2023-02-04T21:33:55.188Z,11.18
2023-02-04T21:36:24.324Z,18.17
2023-02-04T21:38:51.137Z,19.92
2023-02-04T21:41:20.468Z,20.05
2023-02-04T21:43:48.216Z,12.63
2023-02-04T21:46:15.959Z,12.35
2023-02-04T21:48:43.790Z,10.35
2023-02-04T21:51:11.865Z,11.02
2023-02-04T21:53:39.173Z,9.30
2023-02-04T21:56:07.599Z,9.65
2023-02-04T21:58:34.673Z,9.70
2023-02-04T22:01:01.895Z,8.88
2023-02-04T22:03:28.826Z,10.25
2023-02-04T22:05:55.666Z,11.05
2023-02-04T22:08:22.633Z,11.02
2023-02-04T22:10:49.388Z,10.38
2023-02-04T22:13:34.554Z,7.47
2023-02-04T22:16:01.513Z,9.25
2023-02-04T22:18:28.564Z,9.43
2023-02-04T22:20:55.376Z,8.65
2023-02-04T22:23:22.204Z,10.55
2023-02-04T22:25:48.994Z,9.30
2023-02-04T22:28:16.006Z,10.40
2023-02-04T22:30:42.868Z,13.75
2023-02-04T22:33:11.487Z,13.52
2023-02-04T22:35:38.385Z,14.02
2023-02-04T22:38:05.372Z,15.05
2023-02-04T22:40:32.131Z,15.38
2023-02-04T22:43:00.007Z,15.57
2023-02-04T22:45:26.838Z,14.27
2023-02-04T22:47:53.729Z,16.02
2023-02-04T22:50:20.517Z,16.60
2023-02-04T22:52:47.429Z,13.50
2023-02-04T22:55:14.208Z,15.98
2023-02-04T22:57:40.993Z,13.43
2023-02-04T23:00:09.523Z,12.45
2023-02-04T23:02:36.418Z,13.00
2023-02-04T23:05:04.355Z,11.57
2023-02-04T23:07:32.052Z,14.32
2023-02-04T23:09:58.940Z,14.20
2023-02-04T23:12:25.961Z,14.63
2023-02-04T23:14:52.786Z,17.95
2023-02-04T23:17:19.761Z,23.98
2023-02-04T23:19:46.504Z,18.85
2023-02-04T23:22:14.681Z,16.45
2023-02-04T23:24:42.474Z,14.75
2023-02-04T23:27:11.517Z,15.68
2023-02-04T23:29:39.708Z,13.48
2023-02-04T23:32:07.124Z,14.45
2023-02-04T23:34:34.184Z,13.75
2023-02-04T23:37:01.305Z,14.00
2023-02-04T23:39:28.252Z,14.77
2023-02-04T23:41:55.091Z,12.75
2023-02-04T23:44:22.268Z,13.95
2023-02-04T23:46:49.050Z,13.48
2023-02-04T23:49:15.965Z,11.98
2023-02-04T23:51:42.841Z,9.35
2023-02-04T23:54:09.791Z,11.15
2023-02-04T23:56:36.615Z,10.32
2023-02-04T23:59:04.480Z,11.93
